Flight Track Log - Related Links

Times and Time Zones

All times are in EDT time to prevent confusion due to time zone crossing. See the N638SF flight status page for this flight to view local times or setup timezone preferences in your user account.

Time Position Orientation Groundspeed Altitude Reporting Facility
EDT Latitude Longitude Course Direction KTS MPH feet Rate Location/Type
Fri 04:39:48 PM 30.4736 -81.6778 158° South 188 216 700  Level Jacksonville Center
Fri 04:40:03 PM 30.4633 -81.6731 158° South 201 231 1,500 3,760 Climbing Jacksonville Center
Fri 04:41:03 PM 30.4303 -81.7144 227° Southwest 226 260 5,400 3,850 Climbing Jacksonville Center
Fri 04:42:03 PM 30.4267 -81.7942 267° West 251 289 9,200 3,350 Climbing Jacksonville Center
Fri 04:43:03 PM 30.4169 -81.8881 263° West 307 353 12,100 3,000 Climbing Jacksonville Center
Fri 04:44:03 PM 30.4367 -81.9914 283° West 320 368 15,200 2,900 Climbing Jacksonville Center
Fri 04:45:03 PM 30.4581 -82.0781 286° West 320 368 17,900 2,850 Climbing Jacksonville Center
Fri 04:46:03 PM 30.4797 -82.1839 283° West 325 374 20,900 2,500 Climbing Jacksonville Center
Fri 04:47:03 PM 30.4989 -82.2850 282° West 325 374 22,900 1,700 Climbing Jacksonville Center
Fri 04:48:03 PM 30.5244 -82.4222 282° West 367 422 24,300 1,950 Climbing Jacksonville Center
Fri 04:49:03 PM 30.5478 -82.5403 283° West 381 438 26,800 2,400 Climbing Jacksonville Center
Fri 04:50:03 PM 30.5711 -82.6561 283° West 381 438 29,100 1,600 Climbing Jacksonville Center
Fri 04:51:03 PM 30.5942 -82.7767 283° West 375 432 30,000 450 Climbing Jacksonville Center
Fri 04:52:03 PM 30.6194 -82.9094 283° West 395 455 30,000  Level Jacksonville Center
Fri 04:53:03 PM 30.6444 -83.0328 283° West 416 479 30,000  Level Jacksonville Center
Fri 04:54:03 PM 30.6461 -83.1750 271° West 438 504 30,000  Level Jacksonville Center
Fri 04:55:03 PM 30.6458 -83.3175 270° West 444 511 30,000  Level Jacksonville Center
Fri 04:56:03 PM 30.6514 -83.4600 273° West 444 511 30,000  Level Jacksonville Center
Fri 04:57:03 PM 30.6819 -83.6125 283° West 444 511 30,000  Level Jacksonville Center
Fri 04:58:03 PM 30.7125 -83.7528 284° West 450 518 30,000  Level Jacksonville Center
Fri 04:59:03 PM 30.7386 -83.8883 283° West 445 512 30,000  Level Jacksonville Center
Fri 05:00:03 PM 30.7667 -84.0264 283° West 445 512 30,000  Level Jacksonville Center
Fri 05:01:03 PM 30.7947 -84.1647 283° West 445 512 30,000  Level Jacksonville Center
Fri 05:02:03 PM 30.8203 -84.2981 283° West 440 506 30,000  Level Jacksonville Center
Fri 05:03:03 PM 30.8458 -84.4364 282° West 440 506 30,000  Level Jacksonville Center
Fri 05:04:03 PM 30.8714 -84.5747 282° West 433 498 30,000  Level Jacksonville Center
Fri 05:05:03 PM 30.8986 -84.7083 283° West 433 498 30,000  Level Jacksonville Center
Fri 05:06:03 PM 30.9242 -84.8300 284° West 428 493 30,000  Level Jacksonville Center
Fri 05:07:03 PM 30.9492 -84.9661 282° West 433 498 30,000  Level Jacksonville Center
Fri 05:08:03 PM 30.9739 -85.1000 282° West 433 498 30,000  Level Jacksonville Center
Fri 05:09:03 PM 30.9986 -85.2339 282° West 433 498 30,000  Level Jacksonville Center
Fri 05:10:03 PM 31.0253 -85.3725 283° West 433 498 30,000  Level Jacksonville Center
Fri 05:11:03 PM 31.0497 -85.5067 282° West 433 498 30,000  Level Jacksonville Center
Fri 05:12:03 PM 31.0739 -85.6431 282° West 433 498 30,000  Level Jacksonville Center
Fri 05:13:03 PM 31.1000 -85.7894 282° West 433 498 30,000 -350 Level Jacksonville Center
Fri 05:14:03 PM 31.1239 -85.9283 281° West 433 498 29,300 -850 Descending Jacksonville Center
Fri 05:15:03 PM 31.1497 -86.0678 282° West 433 498 28,300 -650 Descending Jacksonville Center
Fri 05:16:03 PM 31.1753 -86.2094 282° West 433 498 28,000 -150 Descending Jacksonville Center
Fri 05:17:03 PM 31.2008 -86.3486 282° West 438 504 28,000  Level Jacksonville Center
Fri 05:18:03 PM 31.2264 -86.4833 283° West 438 504 28,000  Level Jacksonville Center
Fri 05:19:03 PM 31.2497 -86.6178 282° West 431 496 28,000  Level Jacksonville Center
Fri 05:20:03 PM 31.2728 -86.7547 281° West 431 496 28,000  Level Jacksonville Center
Fri 05:22:46 PM 31.3408 -87.1217 282° West 433 498 28,000  Level Atlanta Center
Fri 05:24:27 PM 31.3756 -87.3342 281° West 429 494 28,000 -136 Level Houston Center
Fri 05:24:58 PM 31.3914 -87.4225 282° West 431 496 27,700 -989 Descending Atlanta Center
Fri 05:25:58 PM 31.4167 -87.5622 282° West 431 496 26,500 -1,300 Descending Atlanta Center
Fri 05:26:58 PM 31.4400 -87.6992 281° West 431 496 25,100 -1,250 Descending Atlanta Center
Fri 05:27:58 PM 31.4608 -87.8342 280° West 431 496 24,000 -1,471 Descending Atlanta Center
Fri 05:29:33 PM 31.4936 -88.0358 281° West 416 479 21,300 -1,819 Descending Memphis Center
Fri 05:30:33 PM 31.5147 -88.1572 282° West 403 464 19,300 -2,031 Descending Memphis Center
Fri 05:31:40 PM 31.5311 -88.2694 280° West 374 430 17,000 -1,535 Descending Houston Center
Fri 05:32:42 PM 31.5550 -88.4161 281° West 385 443 16,000 -1,065 Descending Houston Center
Fri 05:33:44 PM 31.5919 -88.5292 291° West 375 432 14,800 -1,730 Descending Houston Center
Fri 05:34:33 PM 31.6347 -88.6250 298° West 381 438 12,800 -2,422 Descending Memphis Center
Fri 05:35:33 PM 31.6819 -88.7169 301° West 363 418 10,400 -2,370 Descending Memphis Center
Fri 05:36:32 PM 31.7183 -88.7919 300° West 324 373 8,100 -2,339 Descending Memphis Center
Fri 05:39:00 PM 31.6967 -88.9749 281° West  Level Estimated
Fri 05:46:00 PM 31.6667 -89.1667 283° West  Level FlightAware Approximate
Fri 05:47:00 PM 31.6730 -89.1728 283° West  Level Estimated
Fri 05:48:00 PM 31.6730 -89.1728 283° West  Level Estimated
Fri 05:49:00 PM 31.6730 -89.1728 283° West  Level Estimated
Fri 05:50:00 PM 31.6730 -89.1728 283° West  Level Estimated
Fri 05:51:00 PM 31.6730 -89.1728 283° West  Level Estimated
Fri 05:52:00 PM 31.6730 -89.1728 283° West  Level Estimated
Fri 05:53:00 PM 31.6730 -89.1728 283° West  Level Estimated

Login

Don't have an account? Register now (free) for customized features, flight alerts, and more!